createdAt,value
2023-09-08T00:00:02.053Z,7.70
2023-09-08T00:02:31.133Z,7.93
2023-09-08T00:04:58.150Z,8.30
2023-09-08T00:07:25.114Z,7.95
2023-09-08T00:09:52.094Z,8.07
2023-09-08T00:12:19.084Z,8.43
2023-09-08T00:14:45.913Z,7.70
2023-09-08T00:17:12.886Z,7.18
2023-09-08T00:19:39.957Z,6.97
2023-09-08T00:22:09.656Z,7.95
2023-09-08T00:24:36.438Z,9.65
2023-09-08T00:27:03.417Z,8.52
2023-09-08T00:29:30.221Z,8.35
2023-09-08T00:31:57.511Z,8.45
2023-09-08T00:34:24.437Z,8.20
2023-09-08T00:36:52.284Z,7.88
2023-09-08T00:39:19.254Z,8.68
2023-09-08T00:41:46.075Z,7.40
2023-09-08T00:44:13.265Z,8.38
2023-09-08T00:46:41.481Z,8.40
2023-09-08T00:49:10.417Z,8.18
2023-09-08T00:51:39.274Z,7.85
2023-09-08T00:54:07.599Z,9.15
2023-09-08T00:56:36.047Z,8.65
2023-09-08T00:59:03.922Z,8.30
2023-09-08T01:01:31.109Z,8.00
2023-09-08T01:03:58.220Z,8.98
2023-09-08T01:06:25.634Z,8.65
2023-09-08T01:08:53.510Z,8.82
2023-09-08T01:11:21.328Z,8.27
2023-09-08T01:13:49.230Z,8.50
2023-09-08T01:16:16.106Z,8.68
2023-09-08T01:18:43.362Z,8.73
2023-09-08T01:21:10.133Z,8.88
2023-09-08T01:23:58.808Z,8.45
2023-09-08T01:26:31.900Z,8.10
2023-09-08T01:29:00.798Z,8.80
2023-09-08T01:31:27.775Z,8.38
2023-09-08T01:33:55.622Z,8.48
2023-09-08T01:36:22.447Z,7.80
2023-09-08T01:38:49.412Z,8.35
2023-09-08T01:41:16.409Z,8.07
2023-09-08T01:43:43.266Z,8.98
2023-09-08T01:46:10.217Z,8.88
2023-09-08T01:48:37.326Z,6.93
2023-09-08T01:51:04.510Z,10.50
2023-09-08T01:53:31.287Z,7.75
2023-09-08T01:55:58.050Z,9.52
2023-09-08T01:58:24.842Z,7.75
2023-09-08T02:00:52.557Z,8.10
2023-09-08T02:03:19.415Z,9.18
2023-09-08T02:05:46.848Z,9.32
2023-09-08T02:08:14.300Z,8.20
2023-09-08T02:10:41.809Z,8.40
2023-09-08T02:13:08.674Z,9.75
2023-09-08T02:15:38.647Z,9.63
2023-09-08T02:18:08.615Z,7.80
2023-09-08T02:20:35.496Z,7.43
2023-09-08T02:23:07.879Z,8.77
2023-09-08T02:25:34.880Z,8.05
2023-09-08T02:28:02.203Z,9.70
2023-09-08T02:30:29.776Z,9.60
2023-09-08T02:32:57.597Z,8.93
2023-09-08T02:35:25.931Z,8.50
2023-09-08T02:37:54.921Z,8.77
2023-09-08T02:40:22.278Z,9.95
2023-09-08T02:42:50.144Z,9.60
2023-09-08T02:45:17.194Z,8.90
2023-09-08T02:47:44.179Z,9.38
2023-09-08T02:50:11.047Z,7.93
2023-09-08T02:52:37.926Z,9.40
2023-09-08T02:55:05.005Z,9.48
2023-09-08T02:57:31.770Z,8.48
2023-09-08T02:59:58.652Z,8.55
2023-09-08T03:02:26.987Z,7.80
2023-09-08T03:04:53.983Z,9.68
2023-09-08T03:07:21.616Z,9.23
2023-09-08T03:09:49.143Z,9.10
2023-09-08T03:12:15.925Z,8.90
2023-09-08T03:14:42.828Z,8.60
2023-09-08T03:17:09.668Z,8.32
2023-09-08T03:19:36.895Z,9.35
2023-09-08T03:22:04.574Z,8.63
2023-09-08T03:24:31.796Z,8.55
2023-09-08T03:26:59.345Z,8.30
2023-09-08T03:29:26.112Z,9.05
2023-09-08T03:31:53.025Z,10.45
2023-09-08T03:34:21.844Z,10.00
2023-09-08T03:36:50.755Z,8.05
2023-09-08T03:39:17.685Z,9.98
2023-09-08T03:41:44.411Z,9.00
2023-09-08T03:44:11.344Z,10.85
2023-09-08T03:46:38.277Z,9.35
2023-09-08T03:49:05.250Z,10.30
2023-09-08T03:51:32.244Z,9.88
2023-09-08T03:53:59.032Z,9.43
2023-09-08T03:56:25.921Z,9.93
2023-09-08T03:58:53.493Z,10.35
2023-09-08T04:01:20.327Z,10.68
2023-09-08T04:03:47.272Z,10.15
2023-09-08T04:06:14.161Z,9.63
2023-09-08T04:08:41.083Z,10.60
2023-09-08T04:11:08.016Z,9.35
2023-09-08T04:13:35.042Z,10.18
2023-09-08T04:16:02.087Z,10.18
2023-09-08T04:18:29.049Z,9.30
2023-09-08T04:20:56.020Z,9.32
2023-09-08T04:23:22.874Z,8.70
2023-09-08T04:25:49.709Z,10.90
2023-09-08T04:28:16.445Z,10.60
2023-09-08T04:30:43.251Z,10.68
2023-09-08T04:33:10.186Z,9.73
2023-09-08T04:35:37.804Z,10.00
2023-09-08T04:38:05.253Z,8.90
2023-09-08T04:40:32.264Z,10.10
2023-09-08T04:42:59.047Z,9.85
2023-09-08T04:45:25.997Z,9.05
2023-09-08T04:47:53.064Z,9.90
2023-09-08T04:50:21.006Z,10.23
2023-09-08T04:52:48.119Z,7.90
2023-09-08T04:55:15.880Z,9.68
2023-09-08T04:57:42.634Z,8.95
2023-09-08T05:00:09.899Z,9.40
2023-09-08T05:02:36.828Z,9.48
2023-09-08T05:05:05.383Z,9.25
2023-09-08T05:07:32.426Z,9.30
2023-09-08T05:09:59.578Z,8.65
2023-09-08T05:12:30.221Z,9.35
2023-09-08T05:15:01.309Z,9.15
2023-09-08T05:17:29.143Z,8.40
2023-09-08T05:19:56.828Z,9.70
2023-09-08T05:22:23.870Z,9.50
2023-09-08T05:24:53.043Z,8.73
2023-09-08T05:27:20.363Z,8.60
2023-09-08T05:29:47.081Z,9.23
2023-09-08T05:32:14.257Z,9.75
2023-09-08T05:34:41.227Z,8.68
2023-09-08T05:37:08.303Z,9.20
2023-09-08T05:39:35.337Z,8.68
2023-09-08T05:42:02.323Z,8.45
2023-09-08T05:44:29.179Z,9.73
2023-09-08T05:46:56.260Z,9.38
2023-09-08T05:49:24.321Z,9.15
2023-09-08T05:51:51.146Z,9.50
2023-09-08T05:54:18.268Z,9.90
2023-09-08T05:56:45.135Z,9.40
2023-09-08T05:59:12.584Z,9.07
2023-09-08T06:01:40.592Z,10.27
2023-09-08T06:04:10.638Z,8.50
2023-09-08T06:06:38.523Z,9.25
2023-09-08T06:09:07.519Z,9.75
2023-09-08T06:11:34.412Z,9.80
2023-09-08T06:14:01.633Z,8.32
2023-09-08T06:16:33.913Z,9.68
2023-09-08T06:19:01.705Z,9.43
2023-09-08T06:21:29.015Z,9.55
2023-09-08T06:23:56.334Z,9.93
2023-09-08T06:26:24.260Z,8.93
2023-09-08T06:28:51.444Z,11.13
2023-09-08T06:31:19.335Z,10.43
2023-09-08T06:33:46.209Z,10.13
2023-09-08T06:36:13.113Z,10.20
2023-09-08T06:38:40.696Z,8.88
2023-09-08T06:41:12.490Z,10.25
2023-09-08T06:43:39.684Z,8.70
2023-09-08T06:46:13.404Z,8.52
2023-09-08T06:48:40.357Z,10.57
2023-09-08T06:51:07.249Z,10.63
2023-09-08T06:53:34.676Z,9.38
2023-09-08T06:56:01.611Z,7.75
2023-09-08T06:58:29.483Z,8.45
2023-09-08T07:00:57.013Z,9.45
2023-09-08T07:03:24.717Z,8.68
2023-09-08T07:05:52.430Z,8.60
2023-09-08T07:08:21.798Z,7.25
2023-09-08T07:10:53.454Z,7.20
2023-09-08T07:13:20.624Z,7.68
2023-09-08T07:15:47.452Z,8.00
2023-09-08T07:18:14.495Z,7.45
2023-09-08T07:20:41.382Z,7.63
2023-09-08T07:23:08.281Z,7.53
2023-09-08T07:25:35.172Z,6.78
2023-09-08T07:28:02.223Z,8.85
2023-09-08T07:30:30.060Z,7.53
2023-09-08T07:32:56.918Z,8.02
2023-09-08T07:35:25.323Z,7.82
2023-09-08T07:37:52.776Z,6.95
2023-09-08T07:40:19.690Z,6.97
2023-09-08T07:42:47.609Z,6.68
2023-09-08T07:45:14.746Z,7.25
2023-09-08T07:47:41.672Z,7.18
2023-09-08T07:50:19.889Z,6.60
2023-09-08T07:52:47.554Z,7.50
2023-09-08T07:55:14.418Z,6.55
2023-09-08T07:57:43.829Z,6.93
2023-09-08T08:00:14.398Z,6.63
2023-09-08T08:02:45.264Z,6.78
2023-09-08T08:05:12.375Z,7.10
2023-09-08T08:07:40.612Z,6.68
2023-09-08T08:10:08.187Z,6.50
2023-09-08T08:12:35.011Z,6.10
2023-09-08T08:15:02.273Z,6.32
2023-09-08T08:17:31.174Z,7.75
2023-09-08T08:20:07.952Z,6.07
2023-09-08T08:22:35.144Z,5.68
2023-09-08T08:25:02.145Z,6.07
2023-09-08T08:27:28.999Z,6.00
2023-09-08T08:29:55.796Z,6.18
2023-09-08T08:32:22.585Z,6.30
2023-09-08T08:34:49.368Z,5.93
2023-09-08T08:37:16.742Z,5.30
2023-09-08T08:39:43.794Z,5.28
2023-09-08T08:42:11.774Z,4.53
2023-09-08T08:44:39.676Z,4.78
2023-09-08T08:47:08.919Z,4.97
2023-09-08T08:49:37.569Z,4.50
2023-09-08T08:52:08.454Z,4.50
2023-09-08T08:54:38.994Z,4.53
2023-09-08T08:57:06.224Z,4.55
2023-09-08T08:59:33.182Z,4.47
2023-09-08T09:02:00.942Z,4.65
2023-09-08T09:04:28.335Z,4.80
2023-09-08T09:06:55.590Z,4.70
2023-09-08T09:09:22.560Z,4.15
2023-09-08T09:11:51.762Z,4.20
2023-09-08T09:14:20.255Z,4.70
2023-09-08T09:16:49.032Z,4.80
2023-09-08T09:19:32.645Z,4.25
2023-09-08T09:22:00.430Z,4.22
2023-09-08T09:24:33.023Z,4.45
2023-09-08T09:27:05.084Z,4.55
2023-09-08T09:29:34.199Z,5.03
2023-09-08T09:32:09.260Z,4.32
2023-09-08T09:34:37.265Z,5.00
2023-09-08T09:37:06.411Z,5.00
2023-09-08T09:39:33.169Z,5.68
2023-09-08T09:42:00.394Z,4.78
2023-09-08T09:44:28.388Z,5.10
2023-09-08T09:46:55.579Z,4.95
2023-09-08T09:49:22.575Z,5.18
2023-09-08T09:51:51.938Z,4.78
2023-09-08T09:54:18.858Z,4.82
2023-09-08T09:56:46.972Z,4.15
2023-09-08T09:59:15.131Z,4.57
2023-09-08T10:01:43.574Z,4.45
2023-09-08T10:04:11.768Z,4.43
2023-09-08T10:06:40.715Z,4.20
2023-09-08T10:09:14.913Z,4.13
2023-09-08T10:11:51.369Z,4.43
2023-09-08T10:14:19.705Z,4.68
2023-09-08T10:16:50.848Z,4.93
2023-09-08T10:19:18.358Z,4.15
2023-09-08T10:21:49.637Z,5.40
2023-09-08T10:24:44.347Z,5.07
2023-09-08T10:27:13.318Z,4.25
2023-09-08T10:29:40.551Z,4.30
2023-09-08T10:32:10.332Z,4.28
2023-09-08T10:34:38.209Z,4.87
2023-09-08T10:37:19.879Z,4.20
2023-09-08T10:39:46.776Z,4.53
2023-09-08T10:42:22.893Z,4.78
2023-09-08T10:44:52.638Z,3.88
2023-09-08T10:47:27.175Z,4.13
2023-09-08T10:50:00.642Z,4.10
2023-09-08T10:52:28.581Z,4.30
2023-09-08T10:54:57.073Z,4.55
2023-09-08T10:57:26.391Z,4.57
2023-09-08T10:59:55.350Z,3.97
2023-09-08T11:02:49.609Z,15.77
2023-09-08T11:05:17.724Z,4.53
2023-09-08T11:07:45.896Z,3.75
2023-09-08T11:10:14.198Z,4.60
2023-09-08T11:12:41.373Z,4.05
2023-09-08T11:15:09.903Z,4.40
2023-09-08T11:17:40.695Z,4.53
2023-09-08T11:20:10.257Z,3.83
2023-09-08T11:22:40.519Z,4.20
2023-09-08T11:25:14.337Z,4.22
2023-09-08T11:27:41.535Z,4.50
2023-09-08T11:30:10.138Z,4.57
2023-09-08T11:32:37.447Z,4.03
2023-09-08T11:35:10.142Z,4.60
2023-09-08T11:37:42.536Z,4.32
2023-09-08T11:40:13.159Z,3.78
2023-09-08T11:42:46.028Z,3.78
2023-09-08T11:45:24.470Z,3.78
2023-09-08T11:47:54.464Z,4.05
2023-09-08T11:50:21.347Z,4.13
2023-09-08T11:52:55.291Z,4.35
2023-09-08T11:55:23.905Z,4.93
2023-09-08T11:57:58.658Z,4.72
2023-09-08T12:00:27.483Z,3.95
2023-09-08T12:02:55.383Z,4.63
2023-09-08T12:05:23.122Z,4.30
2023-09-08T12:07:57.518Z,4.10
2023-09-08T12:10:25.937Z,4.45
2023-09-08T12:12:56.749Z,4.03
2023-09-08T12:15:41.186Z,4.43
2023-09-08T12:18:12.795Z,4.43
2023-09-08T12:20:41.507Z,4.22
2023-09-08T12:23:18.562Z,4.03
2023-09-08T12:25:47.085Z,4.20
2023-09-08T12:28:14.285Z,4.15
2023-09-08T12:30:41.145Z,4.40
2023-09-08T12:33:09.203Z,3.63
2023-09-08T12:35:36.651Z,4.40
2023-09-08T12:38:06.232Z,4.05
2023-09-08T12:40:38.346Z,4.10
2023-09-08T12:43:17.986Z,4.43
2023-09-08T12:45:53.401Z,4.43
2023-09-08T12:48:20.231Z,4.00
2023-09-08T12:50:49.418Z,4.18
2023-09-08T12:53:19.185Z,4.40
2023-09-08T12:55:50.453Z,4.60
2023-09-08T12:58:30.911Z,4.60
2023-09-08T13:00:58.200Z,4.50
2023-09-08T13:03:25.040Z,4.63
2023-09-08T13:05:52.058Z,4.30
2023-09-08T13:08:18.876Z,4.18
2023-09-08T13:10:45.658Z,4.70
2023-09-08T13:13:12.541Z,4.00
2023-09-08T13:15:39.349Z,4.03
2023-09-08T13:18:06.496Z,3.92
2023-09-08T13:20:33.274Z,5.10
2023-09-08T13:23:00.111Z,4.82
2023-09-08T13:25:27.006Z,4.65
2023-09-08T13:27:53.849Z,5.28
2023-09-08T13:30:22.804Z,4.47
2023-09-08T13:32:49.659Z,4.35
2023-09-08T13:35:16.376Z,4.10
2023-09-08T13:37:43.726Z,4.47
2023-09-08T13:40:10.931Z,4.38
2023-09-08T13:42:37.769Z,4.60
2023-09-08T13:45:05.708Z,4.07
2023-09-08T13:47:33.464Z,4.10
2023-09-08T13:50:02.756Z,4.15
2023-09-08T13:52:33.315Z,4.40
2023-09-08T13:55:19.350Z,5.45
2023-09-08T13:57:50.323Z,4.50
2023-09-08T14:00:23.974Z,4.68
2023-09-08T14:02:52.568Z,4.28
2023-09-08T14:05:28.441Z,4.88
2023-09-08T14:08:06.158Z,4.53
2023-09-08T14:10:41.077Z,4.80
2023-09-08T14:13:12.569Z,4.30
2023-09-08T14:15:39.403Z,4.72
2023-09-08T14:18:06.399Z,4.63
2023-09-08T14:20:33.151Z,4.57
2023-09-08T14:22:59.922Z,4.40
2023-09-08T14:25:26.731Z,4.57
2023-09-08T14:27:53.583Z,4.13
2023-09-08T14:30:20.372Z,4.60
2023-09-08T14:32:47.553Z,5.90
2023-09-08T14:35:14.332Z,4.00
2023-09-08T14:37:41.088Z,4.75
2023-09-08T14:40:08.176Z,3.90
2023-09-08T14:42:34.921Z,4.32
2023-09-08T14:45:01.913Z,4.13
2023-09-08T14:47:28.725Z,4.03
2023-09-08T14:49:57.890Z,3.75
2023-09-08T14:52:24.801Z,4.22
2023-09-08T14:54:51.585Z,4.53
2023-09-08T14:57:19.222Z,3.83
2023-09-08T14:59:46.150Z,4.10
2023-09-08T15:02:12.978Z,4.60
2023-09-08T15:04:39.836Z,4.03
2023-09-08T15:07:06.650Z,4.18
2023-09-08T15:09:34.729Z,4.10
2023-09-08T15:12:02.142Z,4.70
2023-09-08T15:14:28.925Z,4.25
2023-09-08T15:16:55.946Z,4.00
2023-09-08T15:19:22.715Z,3.63
2023-09-08T15:21:49.648Z,3.78
2023-09-08T15:24:16.538Z,4.25
2023-09-08T15:26:43.513Z,3.63
2023-09-08T15:29:10.232Z,3.47
2023-09-08T15:31:37.176Z,3.70
2023-09-08T15:34:03.988Z,5.25
2023-09-08T15:36:31.047Z,3.97
2023-09-08T15:38:57.822Z,3.80
2023-09-08T15:41:24.563Z,3.63
2023-09-08T15:43:52.646Z,3.10
2023-09-08T15:46:20.648Z,3.50
2023-09-08T15:48:47.775Z,3.95
2023-09-08T15:51:15.138Z,3.45
2023-09-08T15:53:42.109Z,3.60
2023-09-08T15:56:10.086Z,4.20
2023-09-08T15:58:37.183Z,6.32
2023-09-08T16:01:06.410Z,3.50
2023-09-08T16:03:34.203Z,3.53
2023-09-08T16:06:01.453Z,3.33
2023-09-08T16:08:28.378Z,3.92
2023-09-08T16:10:55.350Z,3.80
2023-09-08T16:13:22.505Z,3.15
2023-09-08T16:15:49.273Z,3.88
2023-09-08T16:18:16.402Z,3.50
2023-09-08T16:20:43.297Z,3.40
2023-09-08T16:23:10.701Z,3.20
2023-09-08T16:25:38.641Z,3.97
2023-09-08T16:28:05.943Z,4.22
2023-09-08T16:30:33.244Z,3.47
2023-09-08T16:33:00.282Z,3.33
2023-09-08T16:35:28.406Z,3.53
2023-09-08T16:37:55.242Z,3.97
2023-09-08T16:40:23.952Z,3.97
2023-09-08T16:42:51.104Z,3.75
2023-09-08T16:45:19.110Z,3.85
2023-09-08T16:47:45.953Z,3.92
2023-09-08T16:50:13.074Z,4.28
2023-09-08T16:52:40.062Z,3.83
2023-09-08T16:55:12.777Z,3.63
2023-09-08T16:57:43.263Z,3.95
2023-09-08T17:00:14.312Z,3.33
2023-09-08T17:02:41.289Z,3.97
2023-09-08T17:05:09.405Z,3.10
2023-09-08T17:07:40.163Z,3.90
2023-09-08T17:10:07.745Z,4.28
2023-09-08T17:12:39.172Z,3.72
2023-09-08T17:15:07.233Z,3.73
2023-09-08T17:17:36.508Z,8.27
2023-09-08T17:20:48.579Z,4.00
2023-09-08T17:23:15.698Z,3.67
2023-09-08T17:25:44.603Z,4.20
2023-09-08T17:28:16.706Z,3.55
2023-09-08T17:34:20.156Z,4.18
2023-09-08T17:37:48.960Z,4.30
2023-09-08T17:40:16.495Z,4.53
2023-09-08T17:42:57.775Z,4.30
2023-09-08T17:45:24.843Z,6.20
2023-09-08T17:47:51.978Z,4.32
2023-09-08T17:50:33.957Z,4.85
2023-09-08T17:53:01.111Z,4.45
2023-09-08T17:55:29.072Z,4.32
2023-09-08T17:57:57.185Z,4.95
2023-09-08T18:00:34.913Z,5.65
2023-09-08T18:03:01.998Z,4.55
2023-09-08T18:05:29.050Z,6.03
2023-09-08T18:07:56.484Z,4.30
2023-09-08T18:10:24.104Z,5.32
2023-09-08T18:12:51.174Z,5.07
2023-09-08T18:15:18.272Z,5.18
2023-09-08T18:17:46.753Z,4.60
2023-09-08T18:20:14.047Z,5.70
2023-09-08T18:22:40.861Z,5.25
2023-09-08T18:25:08.152Z,4.60
2023-09-08T18:27:35.233Z,5.45
2023-09-08T18:30:02.353Z,5.75
2023-09-08T18:32:29.580Z,5.07
2023-09-08T18:34:56.423Z,5.28
2023-09-08T18:37:23.555Z,4.00
2023-09-08T18:39:50.398Z,4.55
2023-09-08T18:42:18.083Z,5.47
2023-09-08T18:44:45.072Z,4.45
2023-09-08T18:47:12.515Z,5.05
2023-09-08T18:49:39.374Z,4.82
2023-09-08T18:52:06.944Z,4.38
2023-09-08T18:54:34.919Z,4.60
2023-09-08T18:57:03.251Z,4.63
2023-09-08T18:59:29.991Z,4.22
2023-09-08T19:01:57.618Z,4.65
2023-09-08T19:04:24.983Z,5.85
2023-09-08T19:06:56.905Z,4.97
2023-09-08T19:09:26.518Z,5.05
2023-09-08T19:11:55.931Z,7.90
2023-09-08T19:14:27.227Z,5.30
2023-09-08T19:16:55.440Z,4.55
2023-09-08T19:19:22.409Z,5.47
2023-09-08T19:21:50.900Z,5.80
2023-09-08T19:24:18.973Z,5.97
2023-09-08T19:26:45.916Z,5.03
2023-09-08T19:29:22.169Z,4.88
2023-09-08T19:32:40.380Z,4.32
2023-09-08T19:35:32.602Z,4.90
2023-09-08T19:41:54.356Z,5.60
2023-09-08T19:44:22.235Z,5.70
2023-09-08T19:46:49.449Z,5.60
2023-09-08T19:49:16.317Z,6.20
2023-09-08T19:51:43.379Z,5.40
2023-09-08T19:54:11.340Z,5.78
2023-09-08T19:56:38.092Z,4.60
2023-09-08T19:59:05.144Z,5.82
2023-09-08T20:01:32.124Z,6.13
2023-09-08T20:03:58.918Z,5.72
2023-09-08T20:06:25.871Z,5.78
2023-09-08T20:08:52.788Z,6.53
2023-09-08T20:11:19.784Z,6.30
2023-09-08T20:13:46.762Z,6.03
2023-09-08T20:16:14.267Z,6.13
2023-09-08T20:18:41.188Z,6.68
2023-09-08T20:21:08.270Z,6.72
2023-09-08T20:23:35.920Z,6.00
2023-09-08T20:26:03.830Z,6.25
2023-09-08T20:28:33.081Z,5.95
2023-09-08T20:33:31.454Z,7.43
2023-09-08T20:35:58.196Z,6.85
2023-09-08T20:38:25.091Z,6.30
2023-09-08T20:40:53.489Z,7.20
2023-09-08T20:43:24.322Z,7.25
2023-09-08T20:45:55.037Z,6.60
2023-09-08T20:48:22.888Z,6.65
2023-09-08T20:50:58.763Z,7.43
2023-09-08T20:53:25.560Z,7.95
2023-09-08T20:55:52.287Z,7.20
2023-09-08T20:58:19.087Z,6.68
2023-09-08T21:00:46.075Z,7.45
2023-09-08T21:03:13.075Z,7.57
2023-09-08T21:05:40.035Z,7.30
2023-09-08T21:08:07.217Z,7.95
2023-09-08T21:10:34.146Z,7.00
2023-09-08T21:13:00.893Z,7.53
2023-09-08T21:15:27.779Z,7.80
2023-09-08T21:17:54.623Z,6.90
2023-09-08T21:20:21.390Z,6.85
2023-09-08T21:22:48.178Z,7.55
2023-09-08T21:25:15.717Z,7.43
2023-09-08T21:27:42.721Z,7.78
2023-09-08T21:30:09.880Z,7.45
2023-09-08T21:32:36.768Z,6.45
2023-09-08T21:35:05.468Z,6.88
2023-09-08T21:37:32.360Z,6.53
2023-09-08T21:39:59.156Z,7.68
2023-09-08T21:42:25.911Z,6.57
2023-09-08T21:44:53.968Z,6.18
2023-09-08T21:47:20.718Z,6.78
2023-09-08T21:49:47.720Z,6.95
2023-09-08T21:52:24.334Z,7.00
2023-09-08T21:54:58.794Z,8.27
2023-09-08T21:57:25.604Z,6.38
2023-09-08T21:59:52.536Z,6.40
2023-09-08T22:02:19.417Z,7.97
2023-09-08T22:04:46.514Z,7.05
2023-09-08T22:07:13.617Z,6.32
2023-09-08T22:09:40.521Z,7.68
2023-09-08T22:12:08.031Z,7.00
2023-09-08T22:14:37.330Z,7.45
2023-09-08T22:17:05.326Z,6.72
2023-09-08T22:19:33.672Z,7.40
2023-09-08T22:22:00.486Z,7.20
2023-09-08T22:24:27.276Z,6.78
2023-09-08T22:26:54.022Z,7.20
2023-09-08T22:29:22.888Z,7.38
2023-09-08T22:31:49.876Z,7.20
2023-09-08T22:34:16.923Z,7.13
2023-09-08T22:36:43.842Z,6.90
2023-09-08T22:39:12.656Z,7.00
2023-09-08T22:41:40.153Z,7.35
2023-09-08T22:44:06.818Z,7.35
2023-09-08T22:46:33.848Z,6.70
2023-09-08T22:49:01.552Z,8.20
2023-09-08T22:51:28.186Z,8.90
2023-09-08T22:53:54.837Z,8.40
2023-09-08T22:56:21.729Z,7.90
2023-09-08T22:58:48.364Z,7.22
2023-09-08T23:01:15.536Z,8.57
2023-09-08T23:03:42.438Z,8.60
2023-09-08T23:06:10.130Z,9.23
2023-09-08T23:08:36.736Z,8.77
2023-09-08T23:11:03.527Z,7.55
2023-09-08T23:13:30.301Z,8.57
2023-09-08T23:15:56.971Z,8.75
2023-09-08T23:18:23.827Z,7.50
2023-09-08T23:20:50.542Z,7.60
2023-09-08T23:23:17.242Z,9.27
2023-09-08T23:25:43.880Z,8.32
2023-09-08T23:28:10.580Z,8.50
2023-09-08T23:30:37.268Z,7.10
2023-09-08T23:33:05.574Z,8.65
2023-09-08T23:35:32.408Z,7.43
2023-09-08T23:37:59.022Z,7.53
2023-09-08T23:40:26.007Z,7.72
2023-09-08T23:42:52.682Z,7.13
2023-09-08T23:45:19.394Z,8.00
2023-09-08T23:47:46.172Z,8.70
2023-09-08T23:50:12.891Z,8.30
2023-09-08T23:52:39.581Z,7.88
2023-09-08T23:55:06.754Z,7.13
2023-09-08T23:57:33.437Z,8.63
